Flight Track Log - Related Links

Times and Time Zones

All times are in EDT time to prevent confusion due to time zone crossing. See the OPT732 flight status page for this flight to view local times or setup timezone preferences in your user account.

Time Position Orientation Groundspeed Altitude Reporting Facility
EDT Latitude Longitude Course Direction KTS MPH feet Rate Location/Type
Wed 11:48:16 PM 39.2333 -76.6833 351° North 200 230 3,100  Level Potomac TRACON
Wed 11:49:53 PM 39.2158 -76.5639 101° East 252 290 7,100 2,868 Climbing Washington Center
Wed 11:50:55 PM 39.1956 -76.4753 106° East 265 305 10,700 3,000 Climbing Washington Center
Wed 11:51:53 PM 39.1736 -76.3653 104° East 285 328 13,100 2,168 Climbing Washington Center
Wed 11:52:54 PM 39.1575 -76.2553 101° East 301 346 15,000 934 Climbing Washington Center
Wed 11:53:00 PM 39.2216 -76.1307 52° Northeast  Level FlightAware Approximate
Wed 11:53:55 PM 39.2247 -76.1489 51° Northeast 317 365 15,000  Level Washington Center
Wed 11:54:53 PM 39.3167 -76.0611 36° Northeast 351 404 15,000 30 Level Washington Center
Wed 11:57:12 PM 39.5500 -75.8500 35° Northeast 427 491 15,100 30 Climbing Philadelphia TRACON
Wed 11:58:12 PM 39.6333 -75.7500 43° Northeast 423 487 15,100 -500 Level Philadelphia TRACON
Wed 11:59:12 PM 39.7333 -75.6667 33° Northeast 421 484 14,100 -952 Descending Philadelphia TRACON
Thu 12:00:18 AM 39.8333 -75.5667 38° Northeast 409 471 13,100 -476 Descending Philadelphia TRACON
Thu 12:01:18 AM 39.9167 -75.4833 37° Northeast 393 452 13,100  Level Philadelphia TRACON
Thu 12:02:06 AM 39.9833 -75.4167 37° Northeast 385 443 13,100  Level Philadelphia TRACON
Thu 12:03:00 AM 40.0667 -75.3500 31° Northeast 386 444 13,100 -273 Level Philadelphia TRACON
Thu 12:04:18 AM 40.1833 -75.2333 37° Northeast 397 457 12,500 -1,303 Descending Philadelphia TRACON
Thu 12:05:55 AM 40.3167 -75.1167 34° Northeast 342 394 9,300 -1,866 Descending New York TRACON
Thu 12:07:02 AM 40.3833 -75.0167 49° Northeast 296 341 7,400 -1,619 Descending New York TRACON
Thu 12:08:01 AM 40.4167 -74.9333 62° Northeast 277 319 5,900 -1,476 Descending New York TRACON
Thu 12:09:08 AM 40.4667 -74.8500 52° Northeast 264 304 4,300 -1,289 Descending New York TRACON
Thu 12:10:02 AM 40.5000 -74.7667 62° Northeast 272 313 3,300 -637 Descending New York TRACON
Thu 12:11:01 AM 40.5333 -74.6833 62° Northeast 266 306 3,100 -100 Descending New York TRACON
Thu 12:12:02 AM 40.5667 -74.6000 62° Northeast 264 304 3,100 -397 Level New York TRACON
Thu 12:13:02 AM 40.6000 -74.5167 62° Northeast 259 298 2,300 -500 Descending New York TRACON
Thu 12:14:02 AM 40.6333 -74.4333 62° Northeast 255 293 2,100 -95 Descending New York TRACON
Thu 12:15:08 AM 40.6833 -74.3500 52° Northeast 246 283 2,100  Level New York TRACON
Thu 12:16:02 AM 40.7000 -74.2833 72° East 242 278 2,100 -200 Level New York TRACON
Thu 12:17:08 AM 40.7500 -74.2000 52° Northeast 258 297 1,700 -318 Descending New York TRACON
Thu 12:18:14 AM 40.8000 -74.1333 45° Northeast 210 242 1,400 -550 Descending New York TRACON
Thu 12:19:08 AM 40.8333 -74.1000 37° Northeast 148 170 600 -889 Descending New York TRACON
Thu 12:21:00 AM 40.8501 -74.0608 57° Northeast  Level Estimated
Thu 12:28:00 AM 40.8501 -74.0608 57° Northeast  Level Estimated

Login

Don't have an account? Register now (free) for customized features, flight alerts, and more!